Time;durP1;ratioP1;P1;durP2;ratioP2;P2;SDS_P1;SDS_P2;PMS_P1;PMS_P2;Temp;Humidity;BMP_temperature;BMP_pressure;BME280_temperature;BME280_humidity;BME280_pressure;Samples;Min_cycle;Max_cycle;Signal;HPM_P1;HPM_P2
2022/12/24 00:01:01;;;;;;;;;;;2.90;79.60;;;;;;5044607;28;87127;-40
2022/12/24 00:03:26;;;;;;;;;;;2.90;79.60;;;;;;5046995;28;87406;-40
2022/12/24 00:05:52;;;;;;;;;;;2.90;79.60;;;;;;5044369;28;87130;-40
2022/12/24 00:08:17;;;;;;;;;;;2.90;79.40;;;;;;5044991;28;87358;-40
2022/12/24 00:10:44;;;;;;;;;;;2.90;79.60;;;;;;5043830;28;88072;-40
2022/12/24 00:13:09;;;;;;;;;;;2.80;79.50;;;;;;5044097;28;87150;-40
2022/12/24 00:15:34;;;;;;;;;;;2.90;79.60;;;;;;5043558;28;87997;-40
2022/12/24 00:18:00;;;;;;;;;;;2.90;79.40;;;;;;5043889;28;88121;-40
2022/12/24 00:20:25;;;;;;;;;;;2.80;79.40;;;;;;5044271;28;87205;-40
2022/12/24 00:22:51;;;;;;;;;;;2.80;79.30;;;;;;5044205;28;86937;-40
2022/12/24 00:25:16;;;;;;;;;;;2.90;79.50;;;;;;5046658;28;88241;-40
2022/12/24 00:27:42;;;;;;;;;;;2.80;79.40;;;;;;5043996;28;87597;-40
2022/12/24 00:30:08;;;;;;;;;;;2.90;79.40;;;;;;5043373;28;88197;-41
2022/12/24 00:32:33;;;;;;;;;;;2.80;79.50;;;;;;5044134;28;86686;-40
2022/12/24 00:34:59;;;;;;;;;;;2.80;79.40;;;;;;5043901;28;86976;-40
2022/12/24 00:37:24;;;;;;;;;;;2.80;79.30;;;;;;5043512;28;87794;-40
2022/12/24 00:39:50;;;;;;;;;;;2.80;79.30;;;;;;5043219;27;88029;-40
2022/12/24 00:42:15;;;;;;;;;;;2.80;79.40;;;;;;5043378;28;87082;-40
2022/12/24 00:44:41;;;;;;;;;;;2.80;79.30;;;;;;5043275;28;88126;-40
2022/12/24 00:47:06;;;;;;;;;;;2.80;79.30;;;;;;5046780;28;86901;-40
2022/12/24 00:49:32;;;;;;;;;;;2.80;79.30;;;;;;5043266;27;88180;-40
2022/12/24 00:51:57;;;;;;;;;;;2.80;79.30;;;;;;5042701;28;87123;-40
2022/12/24 00:54:23;;;;;;;;;;;2.80;79.40;;;;;;5043842;28;87121;-40
2022/12/24 00:56:48;;;;;;;;;;;2.80;79.20;;;;;;5043697;28;86392;-40
2022/12/24 00:59:14;;;;;;;;;;;2.80;79.20;;;;;;5043097;28;87823;-40
2022/12/24 01:01:39;;;;;;;;;;;2.80;79.40;;;;;;5043539;28;87389;-40
2022/12/24 01:06:49;;;;;;;;;;;2.80;79.20;;;;;;5043490;28;87053;-40
2022/12/24 01:09:14;;;;;;;;;;;2.80;79.20;;;;;;5045965;28;87476;-40
2022/12/24 01:11:40;;;;;;;;;;;2.80;79.10;;;;;;5043150;28;87069;-40
2022/12/24 01:14:05;;;;;;;;;;;2.70;79.20;;;;;;5043488;28;87238;-40
2022/12/24 01:16:31;;;;;;;;;;;2.80;79.30;;;;;;5043121;28;88022;-40
2022/12/24 01:18:56;;;;;;;;;;;2.70;79.30;;;;;;5043307;28;87086;-40
2022/12/24 01:21:22;;;;;;;;;;;2.80;79.30;;;;;;5043088;28;88903;-40
2022/12/24 01:23:47;;;;;;;;;;;2.70;79.20;;;;;;5043069;28;88389;-40
2022/12/24 01:26:13;;;;;;;;;;;2.70;79.10;;;;;;5043084;28;87037;-40
2022/12/24 01:28:39;;;;;;;;;;;2.70;79.30;;;;;;5042276;28;88757;-40
2022/12/24 01:31:14;;;;;;;;;;;2.70;79.30;;;;;;5045288;28;89536;-40
2022/12/24 01:33:40;;;;;;;;;;;2.70;79.20;;;;;;5042956;28;87314;-40
2022/12/24 01:36:06;;;;;;;;;;;2.70;79.30;;;;;;5042667;28;87989;-40
2022/12/24 01:38:31;;;;;;;;;;;2.70;79.20;;;;;;5042650;28;87094;-40
2022/12/24 01:43:41;;;;;;;;;;;2.70;79.20;;;;;;5042757;28;87251;-40
2022/12/24 01:46:13;;;;;;;;;;;2.70;79.30;;;;;;5043434;28;86426;-40
2022/12/24 01:48:48;;;;;;;;;;;2.70;79.20;;;;;;5042969;28;86908;-40
2022/12/24 01:51:19;;;;;;;;;;;2.70;79.20;;;;;;5045500;28;88178;-40
2022/12/24 01:53:48;;;;;;;;;;;2.70;79.20;;;;;;5042028;28;88043;-40
2022/12/24 01:56:13;;;;;;;;;;;2.70;79.10;;;;;;5042230;28;88141;-40
2022/12/24 01:58:41;;;;;;;;;;;2.70;79.10;;;;;;5042792;28;87088;-40
2022/12/24 02:01:08;;;;;;;;;;;2.70;79.10;;;;;;5042593;28;87326;-40
2022/12/24 02:03:33;;;;;;;;;;;2.60;79.70;;;;;;5028522;28;91477;-40
2022/12/24 02:05:59;;;;;;;;;;;2.60;79.10;;;;;;5049193;28;87059;-40
2022/12/24 02:08:38;;;;;;;;;;;2.60;79.20;;;;;;5049163;28;87361;-40
2022/12/24 02:11:13;;;;;;;;;;;2.60;79.00;;;;;;5049367;28;87351;-40
2022/12/24 02:13:39;;;;;;;;;;;2.60;79.10;;;;;;5052282;28;87115;-40
2022/12/24 02:16:05;;;;;;;;;;;2.60;79.20;;;;;;5048924;28;88170;-40
2022/12/24 02:18:33;;;;;;;;;;;2.60;79.10;;;;;;5048557;28;88901;-40
2022/12/24 02:21:20;;;;;;;;;;;2.60;79.10;;;;;;5048908;28;88416;-40
2022/12/24 02:24:15;;;;;;;;;;;2.60;79.20;;;;;;5030475;28;88535;-40
2022/12/24 02:26:43;;;;;;;;;;;2.60;79.20;;;;;;4959037;28;87634;-40
2022/12/24 02:29:27;;;;;;;;;;;2.60;79.10;;;;;;5048981;28;87285;-40
2022/12/24 02:32:12;;;;;;;;;;;2.60;79.20;;;;;;5048315;28;89025;-40
2022/12/24 02:34:39;;;;;;;;;;;2.60;79.20;;;;;;5049202;28;87121;-40
2022/12/24 02:37:13;;;;;;;;;;;2.60;79.20;;;;;;5052038;28;86957;-40
2022/12/24 02:39:42;;;;;;;;;;;2.60;79.20;;;;;;5048853;28;87155;-40
2022/12/24 02:42:09;;;;;;;;;;;2.60;79.30;;;;;;5048787;27;87497;-40
2022/12/24 02:44:48;;;;;;;;;;;2.50;79.30;;;;;;5047778;27;88984;-40
2022/12/24 02:47:16;;;;;;;;;;;2.50;79.30;;;;;;5048731;28;87168;-40
2022/12/24 02:49:44;;;;;;;;;;;2.50;79.20;;;;;;5048653;28;87575;-40
2022/12/24 02:52:27;;;;;;;;;;;2.50;79.20;;;;;;5048270;27;87990;-40
2022/12/24 02:54:53;;;;;;;;;;;2.50;79.30;;;;;;5048632;28;86914;-40
2022/12/24 02:57:39;;;;;;;;;;;2.50;79.30;;;;;;5048749;28;87068;-40
2022/12/24 03:00:06;;;;;;;;;;;2.50;79.30;;;;;;5050562;28;87989;-40
2022/12/24 03:02:38;;;;;;;;;;;2.50;79.20;;;;;;5048608;28;88792;-40
2022/12/24 03:05:09;;;;;;;;;;;2.50;79.30;;;;;;5048414;28;87991;-40
2022/12/24 03:07:53;;;;;;;;;;;2.50;79.20;;;;;;5048274;28;87146;-40
2022/12/24 03:10:22;;;;;;;;;;;2.50;79.10;;;;;;5048076;28;88002;-40
2022/12/24 03:12:54;;;;;;;;;;;2.50;79.30;;;;;;5048062;28;87736;-40
2022/12/24 03:15:21;;;;;;;;;;;2.50;79.20;;;;;;5044945;28;87112;-40
2022/12/24 03:17:48;;;;;;;;;;;2.50;79.30;;;;;;5045218;28;87405;-40
2022/12/24 03:20:17;;;;;;;;;;;2.40;79.30;;;;;;5044839;28;87238;-40
2022/12/24 03:22:43;;;;;;;;;;;2.50;79.20;;;;;;5047696;28;87084;-39
2022/12/24 03:25:09;;;;;;;;;;;2.40;79.30;;;;;;5044654;28;88016;-40
2022/12/24 03:27:35;;;;;;;;;;;2.40;79.20;;;;;;5045567;28;86347;-40
2022/12/24 03:30:01;;;;;;;;;;;2.40;79.20;;;;;;5044830;28;87230;-41
2022/12/24 03:32:27;;;;;;;;;;;2.40;79.20;;;;;;5044621;28;88097;-40
2022/12/24 03:34:53;;;;;;;;;;;2.40;79.30;;;;;;5044341;28;88180;-40
2022/12/24 03:37:18;;;;;;;;;;;2.40;79.30;;;;;;5044876;28;88348;-40
2022/12/24 03:39:44;;;;;;;;;;;2.40;79.30;;;;;;5044577;28;88092;-40
2022/12/24 03:42:09;;;;;;;;;;;2.40;79.30;;;;;;5044102;28;87127;-40
2022/12/24 03:44:35;;;;;;;;;;;2.40;79.30;;;;;;5047396;28;87396;-40
2022/12/24 03:47:00;;;;;;;;;;;2.40;79.30;;;;;;5044790;28;87081;-40
2022/12/24 03:49:26;;;;;;;;;;;2.40;79.20;;;;;;5044799;28;87335;-40
2022/12/24 03:51:51;;;;;;;;;;;2.30;79.30;;;;;;5044781;28;87323;-40
2022/12/24 03:54:17;;;;;;;;;;;2.30;79.30;;;;;;5044365;28;87118;-40
2022/12/24 03:56:42;;;;;;;;;;;2.40;79.30;;;;;;5044705;28;87260;-40
2022/12/24 03:59:08;;;;;;;;;;;2.30;79.30;;;;;;5043046;28;88916;-40
2022/12/24 04:01:33;;;;;;;;;;;2.30;79.30;;;;;;5044648;28;87101;-40
2022/12/24 04:03:59;;;;;;;;;;;2.30;79.30;;;;;;5047109;28;86960;-40
2022/12/24 04:06:24;;;;;;;;;;;2.30;79.30;;;;;;5044569;28;87263;-40
2022/12/24 04:08:50;;;;;;;;;;;2.30;79.30;;;;;;5044450;28;87416;-40
2022/12/24 04:11:16;;;;;;;;;;;2.30;79.40;;;;;;5044209;27;88094;-40
2022/12/24 04:13:41;;;;;;;;;;;2.30;79.50;;;;;;5043978;28;87116;-40
2022/12/24 04:16:09;;;;;;;;;;;2.30;79.30;;;;;;5044671;28;87308;-40
2022/12/24 04:18:35;;;;;;;;;;;2.30;79.40;;;;;;5043886;28;87232;-40
2022/12/24 04:21:00;;;;;;;;;;;2.30;79.40;;;;;;5044121;28;87096;-40
2022/12/24 04:23:28;;;;;;;;;;;2.30;79.30;;;;;;5043300;28;87810;-40
2022/12/24 04:25:54;;;;;;;;;;;2.30;79.40;;;;;;5046442;28;88043;-40
2022/12/24 04:28:19;;;;;;;;;;;2.20;79.40;;;;;;5043812;28;86979;-40
2022/12/24 04:30:45;;;;;;;;;;;2.30;79.40;;;;;;5043753;28;87935;-40
2022/12/24 04:33:10;;;;;;;;;;;2.20;79.20;;;;;;5043894;28;87150;-40
2022/12/24 04:35:40;;;;;;;;;;;2.20;79.40;;;;;;5043894;27;87428;-40
2022/12/24 04:38:06;;;;;;;;;;;2.30;79.30;;;;;;5043208;28;89639;-40
2022/12/24 04:40:31;;;;;;;;;;;2.30;79.20;;;;;;5044473;28;86423;-40
2022/12/24 04:42:57;;;;;;;;;;;2.20;79.30;;;;;;5043610;28;87187;-40
2022/12/24 04:45:22;;;;;;;;;;;2.20;79.40;;;;;;5043690;28;88006;-40
2022/12/24 04:47:48;;;;;;;;;;;2.20;79.20;;;;;;5045963;28;88155;-40
2022/12/24 04:50:13;;;;;;;;;;;2.20;79.20;;;;;;5043397;28;87299;-40
2022/12/24 04:52:38;;;;;;;;;;;2.20;79.30;;;;;;5043473;28;87270;-40
2022/12/24 04:55:04;;;;;;;;;;;2.20;79.40;;;;;;5043750;28;87372;-40
2022/12/24 04:57:30;;;;;;;;;;;2.20;79.40;;;;;;5042798;28;89925;-40
2022/12/24 04:59:56;;;;;;;;;;;2.20;79.20;;;;;;5043615;28;87658;-40
2022/12/24 05:02:21;;;;;;;;;;;2.20;79.20;;;;;;5043367;28;88577;-40
2022/12/24 05:04:47;;;;;;;;;;;2.20;79.30;;;;;;5043677;28;87080;-40
2022/12/24 05:07:12;;;;;;;;;;;2.20;79.20;;;;;;5043479;28;87122;-40
2022/12/24 05:09:38;;;;;;;;;;;2.20;79.20;;;;;;5045961;28;87027;-40
2022/12/24 05:12:03;;;;;;;;;;;2.20;79.20;;;;;;5042850;28;88026;-40
2022/12/24 05:14:29;;;;;;;;;;;2.10;79.40;;;;;;5043026;28;88643;-40
2022/12/24 05:16:54;;;;;;;;;;;2.20;79.20;;;;;;5042937;28;88559;-40
2022/12/24 05:19:20;;;;;;;;;;;2.10;79.30;;;;;;5043483;28;87158;-40
2022/12/24 05:26:20;;;;;;;;;;;2.10;79.50;;;;;;5043071;28;87189;-40
2022/12/24 05:27:15;;;;;;;;;;;2.10;79.30;;;;;;5043292;28;86977;-40
2022/12/24 05:29:40;;;;;;;;;;;2.10;79.50;;;;;;5043563;28;87524;-40
2022/12/24 05:32:06;;;;;;;;;;;2.10;79.40;;;;;;5045671;28;88017;-40
2022/12/24 05:34:31;;;;;;;;;;;2.10;79.50;;;;;;5043151;28;86962;-40
2022/12/24 05:36:57;;;;;;;;;;;2.10;79.40;;;;;;5041198;27;89058;-40
2022/12/24 05:39:22;;;;;;;;;;;2.10;79.40;;;;;;5042553;28;87053;-40
2022/12/24 05:41:48;;;;;;;;;;;2.10;79.30;;;;;;5042387;28;87565;-40
2022/12/24 05:44:14;;;;;;;;;;;2.00;79.50;;;;;;5042108;27;89303;-40
2022/12/24 05:46:40;;;;;;;;;;;1.90;79.60;;;;;;5042814;28;87124;-40
2022/12/24 05:49:06;;;;;;;;;;;1.90;79.70;;;;;;5042652;28;87354;-40
2022/12/24 05:51:31;;;;;;;;;;;1.90;79.70;;;;;;5042379;28;88101;-40
2022/12/24 05:53:57;;;;;;;;;;;1.90;79.80;;;;;;5045995;28;86261;-40
2022/12/24 05:56:23;;;;;;;;;;;1.90;79.80;;;;;;5042501;28;88149;-40
2022/12/24 05:58:49;;;;;;;;;;;1.80;79.80;;;;;;5042561;28;87108;-40
2022/12/24 06:01:15;;;;;;;;;;;1.90;79.70;;;;;;5042002;28;87997;-40
2022/12/24 06:03:41;;;;;;;;;;;1.90;79.60;;;;;;5042219;28;88014;-40
2022/12/24 06:06:10;;;;;;;;;;;1.90;79.60;;;;;;5042635;28;87387;-40
2022/12/24 06:08:36;;;;;;;;;;;1.80;79.70;;;;;;5042377;28;87023;-40
2022/12/24 06:11:03;;;;;;;;;;;1.90;79.80;;;;;;5042118;28;88194;-40
2022/12/24 06:13:28;;;;;;;;;;;1.80;79.80;;;;;;5045527;28;87111;-40
2022/12/24 06:15:55;;;;;;;;;;;1.80;80.00;;;;;;5042138;28;87971;-40
2022/12/24 06:18:21;;;;;;;;;;;1.80;80.00;;;;;;5042947;28;85976;-40
2022/12/24 06:20:49;;;;;;;;;;;1.80;79.90;;;;;;5042399;28;87026;-40
2022/12/24 06:23:14;;;;;;;;;;;1.80;79.90;;;;;;5041703;28;87307;-40
2022/12/24 06:25:40;;;;;;;;;;;1.80;80.00;;;;;;5041619;28;88101;-40
2022/12/24 06:28:05;;;;;;;;;;;1.80;80.00;;;;;;5042333;28;87330;-40
2022/12/24 06:30:31;;;;;;;;;;;1.80;79.90;;;;;;5042036;28;87977;-40
2022/12/24 06:32:56;;;;;;;;;;;1.80;79.90;;;;;;5042283;28;87137;-40
2022/12/24 06:35:22;;;;;;;;;;;1.80;79.80;;;;;;5044846;28;87421;-39
2022/12/24 06:37:47;;;;;;;;;;;1.80;79.80;;;;;;5042221;28;87109;-39
2022/12/24 06:40:13;;;;;;;;;;;1.80;79.90;;;;;;5042244;28;87483;-40
2022/12/24 06:42:38;;;;;;;;;;;1.80;79.90;;;;;;5042091;28;86530;-40
2022/12/24 06:45:04;;;;;;;;;;;1.80;79.80;;;;;;5042176;28;87495;-40
2022/12/24 06:47:30;;;;;;;;;;;1.80;79.90;;;;;;5042148;28;87151;-39
2022/12/24 06:49:55;;;;;;;;;;;1.80;79.90;;;;;;5042319;28;89006;-40
2022/12/24 06:52:20;;;;;;;;;;;1.80;79.90;;;;;;5045613;28;87115;-40
2022/12/24 06:54:46;;;;;;;;;;;1.80;79.80;;;;;;5045528;27;86973;-39
2022/12/24 06:57:12;;;;;;;;;;;1.80;79.80;;;;;;5047832;28;89433;-40
2022/12/24 06:59:37;;;;;;;;;;;1.80;79.70;;;;;;5045536;28;87455;-40
2022/12/24 07:02:02;;;;;;;;;;;1.70;79.80;;;;;;5045108;28;88169;-40
2022/12/24 07:04:29;;;;;;;;;;;1.70;79.80;;;;;;5045552;28;87182;-40
2022/12/24 07:06:54;;;;;;;;;;;1.80;79.80;;;;;;5046035;28;86592;-39
2022/12/24 07:09:19;;;;;;;;;;;1.80;79.90;;;;;;5044750;28;87738;-40
2022/12/24 07:11:45;;;;;;;;;;;1.70;79.80;;;;;;5045321;28;87481;-40
2022/12/24 07:14:10;;;;;;;;;;;1.70;79.90;;;;;;5044607;27;88036;-40
2022/12/24 07:16:36;;;;;;;;;;;1.70;79.90;;;;;;5045002;28;87997;-40
2022/12/24 07:19:01;;;;;;;;;;;1.70;80.00;;;;;;5048052;28;87106;-40
2022/12/24 07:21:27;;;;;;;;;;;1.70;80.00;;;;;;5045059;27;88119;-39
2022/12/24 07:23:52;;;;;;;;;;;1.70;80.00;;;;;;5044654;28;86946;-40
2022/12/24 07:26:18;;;;;;;;;;;1.70;79.90;;;;;;5044977;28;87246;-40
2022/12/24 07:28:43;;;;;;;;;;;1.60;79.90;;;;;;5044715;28;88068;-40
2022/12/24 07:31:09;;;;;;;;;;;1.70;80.00;;;;;;5045146;28;86432;-40
2022/12/24 07:33:34;;;;;;;;;;;1.70;80.10;;;;;;5044876;28;87010;-40
2022/12/24 07:36:01;;;;;;;;;;;1.70;80.00;;;;;;5044660;28;88217;-40
2022/12/24 07:38:26;;;;;;;;;;;1.70;80.00;;;;;;5044358;28;88075;-40
2022/12/24 07:40:52;;;;;;;;;;;1.70;79.90;;;;;;5046735;28;89749;-40
2022/12/24 07:43:17;;;;;;;;;;;1.70;79.90;;;;;;5044843;28;87054;-40
2022/12/24 07:45:43;;;;;;;;;;;1.70;79.90;;;;;;5044796;28;87376;-40
2022/12/24 07:48:08;;;;;;;;;;;1.70;80.00;;;;;;5044451;28;87780;-40
2022/12/24 07:50:34;;;;;;;;;;;1.60;80.00;;;;;;5044769;28;87198;-40
2022/12/24 07:52:59;;;;;;;;;;;1.60;80.30;;;;;;5044894;28;87440;-40
2022/12/24 07:55:25;;;;;;;;;;;1.60;80.30;;;;;;5044534;27;89042;-40
2022/12/24 07:57:50;;;;;;;;;;;1.60;80.20;;;;;;5044620;28;87324;-40
2022/12/24 08:00:16;;;;;;;;;;;1.60;80.20;;;;;;5046545;28;87111;-40
2022/12/24 08:02:41;;;;;;;;;;;1.60;80.20;;;;;;5043699;28;88079;-40
2022/12/24 08:05:07;;;;;;;;;;;1.60;80.20;;;;;;5044501;28;88277;-40
2022/12/24 08:07:32;;;;;;;;;;;1.60;80.30;;;;;;5044188;28;88034;-40
2022/12/24 08:09:58;;;;;;;;;;;1.60;80.30;;;;;;5044179;28;87163;-39
2022/12/24 08:12:23;;;;;;;;;;;1.60;80.30;;;;;;5044345;28;87514;-40
2022/12/24 08:14:49;;;;;;;;;;;1.60;80.30;;;;;;5043990;28;88140;-40
2022/12/24 08:17:14;;;;;;;;;;;1.60;80.40;;;;;;5044143;28;87177;-40
2022/12/24 08:19:40;;;;;;;;;;;1.60;80.40;;;;;;5044765;28;87418;-40
2022/12/24 08:22:05;;;;;;;;;;;1.60;80.30;;;;;;5046411;28;88268;-40
2022/12/24 08:24:31;;;;;;;;;;;1.60;80.50;;;;;;5044209;28;87359;-40
2022/12/24 08:26:57;;;;;;;;;;;1.50;80.50;;;;;;5042991;28;88013;-40
2022/12/24 08:29:22;;;;;;;;;;;1.60;80.40;;;;;;5043831;28;87034;-40
2022/12/24 08:31:48;;;;;;;;;;;1.50;80.40;;;;;;5044200;28;87411;-40
2022/12/24 08:34:13;;;;;;;;;;;1.50;80.50;;;;;;5043670;28;88174;-40
2022/12/24 08:36:39;;;;;;;;;;;1.50;80.40;;;;;;5044037;28;87187;-40
2022/12/24 08:39:04;;;;;;;;;;;1.50;81.10;;;;;;5043794;28;87466;-40
2022/12/24 08:41:30;;;;;;;;;;;1.60;80.50;;;;;;5042750;28;89306;-40
2022/12/24 08:43:56;;;;;;;;;;;1.60;80.30;;;;;;5047322;28;86386;-40
2022/12/24 08:46:21;;;;;;;;;;;1.60;80.10;;;;;;5043571;28;88117;-40
2022/12/24 08:48:46;;;;;;;;;;;1.60;80.00;;;;;;5043715;28;87095;-40
2022/12/24 08:51:12;;;;;;;;;;;1.70;80.20;;;;;;5043047;28;88174;-40
2022/12/24 08:53:38;;;;;;;;;;;1.60;80.10;;;;;;5043300;28;88091;-40
2022/12/24 08:56:05;;;;;;;;;;;1.60;80.20;;;;;;5043734;28;87122;-40
2022/12/24 08:58:30;;;;;;;;;;;1.60;80.30;;;;;;5025333;28;91186;-40
2022/12/24 09:00:56;;;;;;;;;;;1.60;80.30;;;;;;5043064;28;89552;-40
2022/12/24 09:03:21;;;;;;;;;;;1.60;80.30;;;;;;5043420;27;87052;-40
2022/12/24 09:05:47;;;;;;;;;;;1.60;80.30;;;;;;5045909;28;89237;-40
2022/12/24 09:08:12;;;;;;;;;;;1.60;80.20;;;;;;5044006;28;86372;-40
2022/12/24 09:10:38;;;;;;;;;;;1.70;80.10;;;;;;5043140;28;87071;-40
2022/12/24 09:13:03;;;;;;;;;;;1.60;80.30;;;;;;5042278;27;88015;-40
2022/12/24 09:15:29;;;;;;;;;;;1.60;80.30;;;;;;5042707;28;88114;-40
2022/12/24 09:17:54;;;;;;;;;;;1.60;80.40;;;;;;5043321;28;88364;-40
2022/12/24 09:20:20;;;;;;;;;;;1.60;80.30;;;;;;5042888;28;88033;-40
2022/12/24 09:22:45;;;;;;;;;;;1.60;80.30;;;;;;5042901;28;87116;-40
2022/12/24 09:25:11;;;;;;;;;;;1.60;80.30;;;;;;5043120;28;87290;-39
2022/12/24 09:27:36;;;;;;;;;;;1.60;80.40;;;;;;5045908;28;87899;-40
2022/12/24 09:30:03;;;;;;;;;;;1.60;80.40;;;;;;5043188;28;87388;-40
2022/12/24 09:32:28;;;;;;;;;;;1.60;80.30;;;;;;5042982;28;89227;-40
2022/12/24 09:34:54;;;;;;;;;;;1.60;80.50;;;;;;5043005;28;87191;-40
2022/12/24 09:37:19;;;;;;;;;;;1.50;80.40;;;;;;5043075;28;86944;-40
2022/12/24 09:39:44;;;;;;;;;;;1.60;80.60;;;;;;5041860;27;88965;-40
2022/12/24 09:42:28;;;;;;;;;;;1.60;80.70;;;;;;5042516;28;87032;-40
2022/12/24 09:44:59;;;;;;;;;;;1.60;80.60;;;;;;5042768;28;87916;-40
2022/12/24 09:47:28;;;;;;;;;;;1.60;80.50;;;;;;5042247;28;87629;-40
2022/12/24 09:49:55;;;;;;;;;;;1.60;80.30;;;;;;5045763;28;87127;-40
2022/12/24 09:52:41;;;;;;;;;;;1.70;80.40;;;;;;5042419;28;87436;-40
2022/12/24 09:55:15;;;;;;;;;;;1.60;80.30;;;;;;5041953;28;87051;-40
2022/12/24 09:57:42;;;;;;;;;;;1.60;80.40;;;;;;5043301;28;87334;-40
2022/12/24 10:00:23;;;;;;;;;;;1.60;80.60;;;;;;5042229;28;87268;-40
2022/12/24 10:02:48;;;;;;;;;;;1.60;80.50;;;;;;5042589;28;86976;-40
2022/12/24 10:05:14;;;;;;;;;;;1.60;80.50;;;;;;5042240;28;88046;-40
2022/12/24 10:07:50;;;;;;;;;;;1.60;80.50;;;;;;5042260;28;88055;-40
2022/12/24 10:10:15;;;;;;;;;;;1.60;80.70;;;;;;5045537;28;87085;-40
2022/12/24 10:13:04;;;;;;;;;;;1.60;80.80;;;;;;5042216;28;88529;-40
2022/12/24 10:15:45;;;;;;;;;;;1.60;81.00;;;;;;4994621;28;86968;-40
2022/12/24 10:18:11;;;;;;;;;;;1.50;81.10;;;;;;5042789;28;88235;-40
2022/12/24 10:20:48;;;;;;;;;;;1.60;80.80;;;;;;5042233;28;88119;-40
2022/12/24 10:23:33;;;;;;;;;;;1.60;80.90;;;;;;5042626;27;86384;-40
2022/12/24 10:26:01;;;;;;;;;;;1.60;80.60;;;;;;5046013;28;86916;-40
2022/12/24 10:28:46;;;;;;;;;;;1.60;80.60;;;;;;5045635;28;88069;-40
2022/12/24 10:31:12;;;;;;;;;;;1.60;80.70;;;;;;5045204;28;88005;-40
2022/12/24 10:33:42;;;;;;;;;;;1.60;81.00;;;;;;5048622;28;88364;-40
2022/12/24 10:36:14;;;;;;;;;;;1.60;81.20;;;;;;5045649;28;87136;-40
2022/12/24 10:38:39;;;;;;;;;;;1.60;81.10;;;;;;5045828;28;87541;-40
2022/12/24 10:41:07;;;;;;;;;;;1.50;81.10;;;;;;5044925;28;88062;-40
2022/12/24 10:43:32;;;;;;;;;;;1.60;80.90;;;;;;5046090;28;88152;-40
2022/12/24 10:46:03;;;;;;;;;;;1.60;80.90;;;;;;5045973;28;87064;-40
2022/12/24 10:48:29;;;;;;;;;;;1.60;80.80;;;;;;5045815;28;87468;-40
2022/12/24 10:51:01;;;;;;;;;;;1.60;81.00;;;;;;5045143;28;87151;-40
2022/12/24 10:53:33;;;;;;;;;;;1.60;81.10;;;;;;5045350;27;87333;-40
2022/12/24 10:56:06;;;;;;;;;;;1.60;81.20;;;;;;5047395;28;88985;-40
2022/12/24 10:58:32;;;;;;;;;;;1.60;81.10;;;;;;5045246;28;88440;-40
2022/12/24 11:00:58;;;;;;;;;;;1.60;81.20;;;;;;5045049;28;88209;-40
2022/12/24 11:03:28;;;;;;;;;;;1.50;81.50;;;;;;5045225;28;87162;-40
2022/12/24 11:06:10;;;;;;;;;;;1.60;81.50;;;;;;5045225;28;88555;-40
2022/12/24 11:08:37;;;;;;;;;;;1.60;81.50;;;;;;5044911;28;89423;-40
2022/12/24 11:11:16;;;;;;;;;;;1.50;81.60;;;;;;5044989;28;87119;-40
2022/12/24 11:13:48;;;;;;;;;;;1.50;81.60;;;;;;5045734;28;88846;-40
2022/12/24 11:16:16;;;;;;;;;;;1.50;81.70;;;;;;5045118;28;87287;-39
2022/12/24 11:18:46;;;;;;;;;;;1.60;81.60;;;;;;5048387;28;87058;-40
2022/12/24 11:21:18;;;;;;;;;;;1.60;81.60;;;;;;5044115;28;88943;-40
2022/12/24 11:23:48;;;;;;;;;;;1.60;81.60;;;;;;5045131;28;87067;-40
2022/12/24 11:26:19;;;;;;;;;;;1.60;81.70;;;;;;5045039;28;87094;-40
2022/12/24 11:29:01;;;;;;;;;;;1.60;81.80;;;;;;5044655;28;88470;-40
2022/12/24 11:31:28;;;;;;;;;;;1.60;81.90;;;;;;5045264;28;87034;-40
2022/12/24 11:33:53;;;;;;;;;;;1.60;81.80;;;;;;5044688;28;88858;-40
2022/12/24 11:36:23;;;;;;;;;;;1.60;81.80;;;;;;5043683;28;88144;-40
2022/12/24 11:38:56;;;;;;;;;;;1.60;81.90;;;;;;5045168;28;86364;-40
2022/12/24 11:41:21;;;;;;;;;;;1.60;81.90;;;;;;5047355;28;87093;-40
2022/12/24 11:43:48;;;;;;;;;;;1.60;82.00;;;;;;5044889;27;87089;-40
2022/12/24 11:46:18;;;;;;;;;;;1.60;82.00;;;;;;5044378;28;87829;-40
2022/12/24 11:48:44;;;;;;;;;;;1.60;82.00;;;;;;5044479;28;88095;-40
2022/12/24 11:51:23;;;;;;;;;;;1.60;82.10;;;;;;5044635;28;87114;-40
2022/12/24 11:53:51;;;;;;;;;;;1.60;82.50;;;;;;5044693;28;87255;-40
2022/12/24 11:56:29;;;;;;;;;;;1.60;82.30;;;;;;5044064;28;88047;-40
2022/12/24 11:58:57;;;;;;;;;;;1.60;82.20;;;;;;5044631;28;87427;-40
2022/12/24 12:01:33;;;;;;;;;;;1.60;82.30;;;;;;5044514;28;87214;-40
2022/12/24 12:04:05;;;;;;;;;;;1.60;82.30;;;;;;5047176;28;87335;-40
2022/12/24 12:06:39;;;;;;;;;;;1.60;83.10;;;;;;5044233;28;86985;-40
2022/12/24 12:09:06;;;;;;;;;;;1.60;82.40;;;;;;5043958;28;88012;-40
2022/12/24 12:11:33;;;;;;;;;;;1.70;82.40;;;;;;5043625;28;89591;-40
2022/12/24 12:14:00;;;;;;;;;;;1.60;82.40;;;;;;5044298;28;89788;-40
2022/12/24 12:16:59;;;;;;;;;;;1.60;82.30;;;;;;5043841;28;88420;-40
2022/12/24 12:19:16;;;;;;;;;;;1.60;82.50;;;;;;5043910;28;87149;-40
2022/12/24 12:21:44;;;;;;;;;;;1.60;82.60;;;;;;5044079;27;87439;-40
2022/12/24 12:24:19;;;;;;;;;;;1.60;82.60;;;;;;5046693;27;88269;-40
2022/12/24 12:26:45;;;;;;;;;;;1.70;82.70;;;;;;5043931;28;88944;-40
2022/12/24 12:29:13;;;;;;;;;;;1.70;82.70;;;;;;5043773;28;87727;-40
2022/12/24 12:31:41;;;;;;;;;;;1.70;82.50;;;;;;5044191;28;88515;-40
2022/12/24 12:34:25;;;;;;;;;;;1.70;82.70;;;;;;5043726;28;87347;-40
2022/12/24 12:36:59;;;;;;;;;;;1.70;82.80;;;;;;5042606;28;90086;-40
2022/12/24 12:39:25;;;;;;;;;;;1.70;82.90;;;;;;5043981;28;88122;-40
2022/12/24 12:41:59;;;;;;;;;;;1.70;82.90;;;;;;5042762;28;89003;-40
2022/12/24 12:44:31;;;;;;;;;;;1.70;82.90;;;;;;5043670;28;88161;-40
2022/12/24 12:47:15;;;;;;;;;;;1.70;83.00;;;;;;5046436;27;87051;-40
2022/12/24 12:49:51;;;;;;;;;;;1.70;83.60;;;;;;5025195;28;90684;-40
2022/12/24 12:52:41;;;;;;;;;;;1.70;83.00;;;;;;5043834;27;86904;-40
2022/12/24 12:55:17;;;;;;;;;;;1.70;83.20;;;;;;5044254;28;87438;-40
2022/12/24 12:57:43;;;;;;;;;;;1.70;82.90;;;;;;5043308;28;88117;-40
2022/12/24 13:00:10;;;;;;;;;;;1.70;83.00;;;;;;5043497;28;86998;-40
2022/12/24 13:02:50;;;;;;;;;;;1.70;83.20;;;;;;5042363;28;89384;-40
2022/12/24 13:05:21;;;;;;;;;;;1.70;83.10;;;;;;5043411;28;88032;-40
2022/12/24 13:08:02;;;;;;;;;;;1.70;83.30;;;;;;5043514;28;87141;-40
2022/12/24 13:10:27;;;;;;;;;;;1.70;83.40;;;;;;5045846;28;87456;-40
2022/12/24 13:12:53;;;;;;;;;;;1.70;83.50;;;;;;5043253;28;87156;-40
2022/12/24 13:15:18;;;;;;;;;;;1.70;83.50;;;;;;5043326;28;87120;-40
2022/12/24 13:17:51;;;;;;;;;;;1.70;83.50;;;;;;5042965;28;88141;-40
2022/12/24 13:20:19;;;;;;;;;;;1.70;83.30;;;;;;5044063;28;86213;-40
2022/12/24 13:22:50;;;;;;;;;;;1.70;83.50;;;;;;5043002;28;87452;-39
2022/12/24 13:25:22;;;;;;;;;;;1.70;83.60;;;;;;5042706;28;88854;-40
2022/12/24 13:27:48;;;;;;;;;;;1.70;83.70;;;;;;5042046;28;89004;-40
2022/12/24 13:30:13;;;;;;;;;;;1.70;84.30;;;;;;5043170;28;88513;-40
2022/12/24 13:32:46;;;;;;;;;;;1.70;83.70;;;;;;5045805;28;87778;-40
2022/12/24 13:35:17;;;;;;;;;;;1.70;83.80;;;;;;5043004;28;88599;-40
2022/12/24 13:37:43;;;;;;;;;;;1.70;83.60;;;;;;5042535;28;88150;-40
2022/12/24 13:40:08;;;;;;;;;;;1.70;83.60;;;;;;5043014;28;87118;-40
2022/12/24 13:42:52;;;;;;;;;;;1.70;83.80;;;;;;5042639;28;87378;-40
2022/12/24 13:45:29;;;;;;;;;;;1.70;83.80;;;;;;5043247;28;87300;-40
2022/12/24 13:47:55;;;;;;;;;;;1.80;83.80;;;;;;5043063;28;87292;-40
2022/12/24 13:50:22;;;;;;;;;;;1.80;83.60;;;;;;5043116;28;87355;-40
2022/12/24 13:52:51;;;;;;;;;;;1.80;83.50;;;;;;5041226;28;89798;-39
2022/12/24 13:55:17;;;;;;;;;;;1.80;83.60;;;;;;5045630;28;87104;-40
2022/12/24 13:58:12;;;;;;;;;;;1.80;83.40;;;;;;5042122;27;87271;-40
2022/12/24 14:00:39;;;;;;;;;;;1.90;83.10;;;;;;5020717;28;87298;-40
2022/12/24 14:03:08;;;;;;;;;;;2.00;82.90;;;;;;5042721;28;87194;-40
2022/12/24 14:05:37;;;;;;;;;;;2.00;82.60;;;;;;5041941;28;88423;-40
2022/12/24 14:08:05;;;;;;;;;;;1.90;82.90;;;;;;5042248;28;86935;-40
2022/12/24 14:10:35;;;;;;;;;;;2.00;82.90;;;;;;5042963;28;87416;-40
2022/12/24 14:13:00;;;;;;;;;;;1.90;83.00;;;;;;5042196;27;88117;-40
2022/12/24 14:15:44;;;;;;;;;;;2.00;82.50;;;;;;5042535;28;87003;-40
2022/12/24 14:18:15;;;;;;;;;;;2.00;82.70;;;;;;5044583;28;88015;-40
2022/12/24 14:20:41;;;;;;;;;;;2.00;82.90;;;;;;5042557;28;87007;-40
2022/12/24 14:23:16;;;;;;;;;;;2.00;82.50;;;;;;5042175;28;87302;-40
2022/12/24 14:25:42;;;;;;;;;;;2.10;82.60;;;;;;5042340;28;88252;-40
2022/12/24 14:28:16;;;;;;;;;;;2.20;82.20;;;;;;5042141;28;87166;-40
2022/12/24 14:30:41;;;;;;;;;;;2.20;82.10;;;;;;5042375;28;87472;-40
2022/12/24 14:33:26;;;;;;;;;;;2.20;82.20;;;;;;5042064;28;88110;-40
2022/12/24 14:35:52;;;;;;;;;;;2.30;81.90;;;;;;5043184;28;86334;-40
2022/12/24 14:38:17;;;;;;;;;;;2.20;82.00;;;;;;5044865;28;87073;-40
2022/12/24 14:41:01;;;;;;;;;;;2.30;81.80;;;;;;5041687;28;87212;-40
2022/12/24 14:43:27;;;;;;;;;;;2.30;81.70;;;;;;5041829;28;88046;-40
2022/12/24 14:46:03;;;;;;;;;;;2.30;81.60;;;;;;5041840;28;87782;-40